Time;durP1;ratioP1;P1;durP2;ratioP2;P2;SDS_P1;SDS_P2;PMS_P1;PMS_P2;Temp;Humidity;BMP_temperature;BMP_pressure;BME280_temperature;BME280_humidity;BME280_pressure;Samples;Min_cycle;Max_cycle;Signal;HPM_P1;HPM_P2
2022/08/13 00:02:09;;;;;;;1.37;1.37;;;26.70;40.80;;;;;;5072007;28;20538;-60
2022/08/13 00:04:38;;;;;;;1.67;1.57;;;26.70;41.50;;;;;;5072040;28;20478;-61
2022/08/13 00:07:07;;;;;;;1.80;1.20;;;26.70;41.00;;;;;;5071954;28;20868;-61
2022/08/13 00:09:36;;;;;;;2.00;1.40;;;26.60;41.10;;;;;;5071702;28;20447;-59
2022/08/13 00:14:50;;;;;;;4.03;1.63;;;26.60;41.20;;;;;;5073072;28;20558;-59
2022/08/13 00:17:19;;;;;;;1.60;1.50;;;26.60;41.30;;;;;;5072081;28;20447;-59
2022/08/13 00:19:48;;;;;;;1.20;1.20;;;26.60;41.40;;;;;;5071631;28;20486;-59
2022/08/13 00:22:22;;;;;;;1.70;1.60;;;26.50;41.40;;;;;;5071742;28;20478;-60
2022/08/13 00:24:48;;;;;;;1.20;1.20;;;26.50;41.50;;;;;;5071676;28;20854;-58
2022/08/13 00:27:15;;;;;;;1.40;1.30;;;26.50;41.50;;;;;;5071785;28;20538;-60
2022/08/13 00:29:43;;;;;;;1.20;1.20;;;26.50;41.50;;;;;;5072485;28;20471;-58
2022/08/13 00:32:10;;;;;;;2.17;2.07;;;26.50;41.50;;;;;;5071647;28;20450;-60
2022/08/13 00:34:37;;;;;;;1.97;1.87;;;26.40;41.50;;;;;;5071624;28;20489;-60
2022/08/13 00:37:09;;;;;;;2.20;2.00;;;26.30;41.60;;;;;;5071159;28;20813;-61
2022/08/13 00:39:37;;;;;;;2.53;2.40;;;26.30;41.70;;;;;;5071399;28;20483;-60
2022/08/13 00:42:05;;;;;;;2.43;2.33;;;26.30;41.80;;;;;;5071595;28;20440;-60
2022/08/13 00:44:32;;;;;;;3.90;2.60;;;26.30;42.00;;;;;;5071364;28;20557;-59
2022/08/13 00:49:40;;;;;;;2.47;2.27;;;26.30;42.00;;;;;;5070982;28;20960;-58
2022/08/13 00:52:10;;;;;;;2.73;1.97;;;26.40;41.90;;;;;;5071484;28;20443;-60
2022/08/13 00:54:41;;;;;;;2.30;2.10;;;26.40;42.00;;;;;;5071268;28;20463;-58
2022/08/13 00:57:12;;;;;;;3.13;2.83;;;26.30;42.00;;;;;;5071373;28;20436;-59
2022/08/13 00:59:39;;;;;;;3.90;2.77;;;26.30;41.90;;;;;;5071084;28;20483;-60
2022/08/13 01:02:06;;;;;;;3.70;2.57;;;26.30;42.00;;;;;;5071378;28;20497;-61
2022/08/13 01:04:34;;;;;;;2.23;2.13;;;26.30;42.10;;;;;;5072424;28;20502;-60
2022/08/13 01:07:04;;;;;;;2.17;1.87;;;26.30;42.30;;;;;;5071351;28;20844;-60
2022/08/13 01:09:31;;;;;;;1.97;1.97;;;26.30;42.20;;;;;;5071079;28;20810;-59
2022/08/13 01:12:02;;;;;;;1.93;1.83;;;26.30;42.20;;;;;;5071263;28;20529;-57
2022/08/13 01:14:33;;;;;;;1.63;1.53;;;26.30;42.30;;;;;;5071161;28;20563;-59
2022/08/13 01:17:03;;;;;;;1.70;1.60;;;26.30;42.30;;;;;;5071365;28;20514;-59
2022/08/13 01:19:33;;;;;;;1.73;1.63;;;26.30;42.30;;;;;;5070803;28;21005;-58
2022/08/13 01:22:01;;;;;;;1.70;1.67;;;26.30;42.30;;;;;;5088993;28;20469;-59
2022/08/13 01:24:29;;;;;;;3.80;1.80;;;26.30;42.30;;;;;;5091355;28;20908;-58
2022/08/13 01:26:58;;;;;;;2.13;1.83;;;26.30;42.30;;;;;;5091362;28;20450;-60
2022/08/13 01:29:26;;;;;;;1.90;1.60;;;26.30;42.30;;;;;;5091018;28;20443;-59
2022/08/13 01:31:53;;;;;;;2.10;2.00;;;26.30;42.30;;;;;;5091312;28;20444;-57
2022/08/13 01:34:25;;;;;;;1.53;1.53;;;26.30;42.40;;;;;;5091225;28;20560;-56
2022/08/13 01:36:54;;;;;;;1.77;1.57;;;26.40;42.50;;;;;;5089512;28;20451;-60
2022/08/13 01:39:22;;;;;;;1.40;1.40;;;26.40;42.50;;;;;;5089200;28;20510;-56
2022/08/13 01:41:49;;;;;;;1.70;1.60;;;26.30;42.40;;;;;;5091230;28;20534;-58
2022/08/13 01:44:18;;;;;;;1.67;1.63;;;26.30;42.40;;;;;;5091040;28;20873;-58
2022/08/13 01:52:16;;;;;;;3.23;1.80;;;26.30;42.60;;;;;;5095051;28;20871;-55
2022/08/13 01:54:44;;;;;;;1.70;1.60;;;26.20;42.70;;;;;;5093000;28;20470;-60
2022/08/13 01:57:12;;;;;;;1.53;1.53;;;26.20;43.30;;;;;;5094593;28;20474;-59
2022/08/13 01:59:41;;;;;;;1.60;1.60;;;26.10;43.40;;;;;;5094373;28;20914;-59
2022/08/13 02:02:10;;;;;;;1.67;1.57;;;26.10;42.90;;;;;;5094263;28;20463;-55
2022/08/13 02:04:37;;;;;;;1.80;1.70;;;26.10;43.00;;;;;;5094494;28;20568;-59
2022/08/13 02:07:08;;;;;;;1.47;1.43;;;26.10;43.20;;;;;;5094495;28;20481;-61
2022/08/13 02:09:35;;;;;;;1.73;1.63;;;26.10;43.20;;;;;;5094282;28;20439;-59
2022/08/13 02:12:05;;;;;;;1.70;1.70;;;26.10;43.30;;;;;;5092390;28;20493;-60
2022/08/13 02:14:34;;;;;;;1.60;1.60;;;26.00;43.50;;;;;;5094322;28;20893;-59
2022/08/13 02:17:04;;;;;;;1.60;1.60;;;26.10;43.50;;;;;;5094489;28;20446;-57
2022/08/13 02:19:31;;;;;;;1.70;1.60;;;26.00;43.60;;;;;;5094046;28;20482;-59
2022/08/13 02:21:59;;;;;;;1.93;1.83;;;26.00;43.80;;;;;;5094418;28;20538;-56
2022/08/13 02:24:26;;;;;;;1.60;1.60;;;26.10;43.90;;;;;;5094084;28;20466;-58
2022/08/13 02:26:53;;;;;;;1.43;1.40;;;26.00;43.80;;;;;;5092385;28;20545;-61
2022/08/13 02:29:22;;;;;;;1.97;1.80;;;26.00;43.90;;;;;;5093978;28;20481;-60
2022/08/13 02:31:50;;;;;;;2.50;1.70;;;26.00;44.00;;;;;;5094105;28;20453;-60
2022/08/13 02:34:18;;;;;;;1.80;1.70;;;26.00;44.10;;;;;;5093979;28;20471;-58
2022/08/13 02:36:48;;;;;;;2.83;1.80;;;26.00;44.10;;;;;;5094283;28;20492;-59
2022/08/13 02:39:15;;;;;;;1.60;1.60;;;26.00;44.70;;;;;;5093613;28;21004;-60
2022/08/13 02:41:43;;;;;;;1.73;1.70;;;26.00;44.20;;;;;;5093822;28;20960;-60
2022/08/13 02:44:12;;;;;;;2.23;2.03;;;25.90;44.30;;;;;;5091995;28;20535;-61
2022/08/13 02:46:42;;;;;;;1.90;1.60;;;25.90;44.20;;;;;;5093500;28;20525;-60
2022/08/13 02:49:09;;;;;;;4.30;2.40;;;25.90;44.20;;;;;;5093640;28;20804;-61
2022/08/13 02:51:38;;;;;;;2.23;2.03;;;25.90;44.20;;;;;;5093749;28;20482;-59
2022/08/13 02:54:06;;;;;;;2.47;2.27;;;25.90;44.30;;;;;;5093510;28;20521;-59
2022/08/13 02:56:36;;;;;;;6.63;2.13;;;25.90;44.30;;;;;;5093487;28;20445;-60
2022/08/13 02:59:08;;;;;;;2.13;2.10;;;25.90;44.30;;;;;;5092917;28;20485;-58
2022/08/13 03:01:38;;;;;;;2.60;2.30;;;25.90;44.40;;;;;;5091724;28;20508;-59
2022/08/13 03:04:06;;;;;;;2.17;2.00;;;25.80;44.40;;;;;;5093518;28;20454;-61
2022/08/13 03:06:33;;;;;;;1.80;1.70;;;25.80;44.40;;;;;;5093306;28;20539;-61
2022/08/13 03:09:02;;;;;;;6.33;3.00;;;25.80;44.50;;;;;;5092849;28;20449;-61
2022/08/13 03:11:29;;;;;;;2.13;2.03;;;25.80;44.60;;;;;;5093405;28;20525;-59
2022/08/13 03:13:59;;;;;;;1.67;1.67;;;25.70;44.70;;;;;;5093107;28;20796;-61
2022/08/13 03:16:28;;;;;;;3.30;1.80;;;25.70;44.90;;;;;;5093282;28;20823;-59
2022/08/13 03:18:57;;;;;;;2.13;2.03;;;25.60;45.00;;;;;;5091173;28;20478;-60
2022/08/13 03:21:27;;;;;;;2.30;2.10;;;25.60;45.10;;;;;;5092939;28;20454;-59
2022/08/13 03:23:53;;;;;;;2.23;1.97;;;25.50;45.10;;;;;;5093042;28;20862;-61
2022/08/13 03:26:21;;;;;;;2.23;2.13;;;25.50;45.10;;;;;;5092915;28;20863;-59
2022/08/13 03:28:51;;;;;;;2.23;2.13;;;25.40;45.20;;;;;;5092861;28;20453;-60
2022/08/13 03:31:18;;;;;;;2.70;2.17;;;25.40;45.40;;;;;;5082769;28;20455;-59
2022/08/13 03:33:46;;;;;;;2.50;2.20;;;25.40;45.50;;;;;;5072482;28;20626;-60
2022/08/13 03:36:14;;;;;;;3.07;2.97;;;25.40;45.60;;;;;;5072549;28;20455;-60
2022/08/13 03:38:43;;;;;;;2.40;2.30;;;25.40;45.70;;;;;;5072331;28;20811;-60
2022/08/13 03:41:12;;;;;;;2.27;2.17;;;25.30;45.70;;;;;;5072149;28;20475;-61
2022/08/13 03:43:43;;;;;;;1.77;1.67;;;25.30;45.90;;;;;;5072354;28;20470;-61
2022/08/13 03:46:12;;;;;;;1.70;1.60;;;25.30;46.50;;;;;;5087989;28;20482;-61
2022/08/13 03:48:39;;;;;;;2.00;1.90;;;25.20;46.20;;;;;;5092447;28;20995;-60
2022/08/13 03:51:07;;;;;;;1.70;1.70;;;25.20;46.20;;;;;;5092433;28;20470;-59
2022/08/13 03:53:35;;;;;;;1.73;1.70;;;25.10;46.20;;;;;;5092156;28;21042;-60
2022/08/13 03:56:05;;;;;;;4.70;2.23;;;25.10;46.20;;;;;;5092495;28;20462;-61
2022/08/13 03:58:32;;;;;;;2.20;2.00;;;25.10;46.30;;;;;;5092250;28;20478;-60
2022/08/13 04:00:59;;;;;;;2.10;2.00;;;25.10;46.40;;;;;;5089039;28;20573;-61
2022/08/13 04:03:28;;;;;;;2.33;2.23;;;25.10;46.50;;;;;;5072044;28;20964;-61
2022/08/13 04:05:58;;;;;;;2.50;2.30;;;25.10;46.60;;;;;;5072055;28;20463;-61
2022/08/13 04:08:27;;;;;;;2.60;2.40;;;25.00;46.70;;;;;;5071711;28;20825;-60
2022/08/13 04:10:55;;;;;;;2.90;2.20;;;25.00;46.80;;;;;;5086404;28;20564;-60
2022/08/13 04:13:25;;;;;;;1.90;1.90;;;25.00;46.90;;;;;;5092053;28;20529;-61
2022/08/13 04:15:53;;;;;;;2.10;2.00;;;25.00;47.00;;;;;;5092034;28;20474;-59
2022/08/13 04:18:20;;;;;;;2.13;2.03;;;25.00;47.00;;;;;;5090326;28;20481;-60
2022/08/13 04:20:54;;;;;;;2.53;2.43;;;25.00;47.00;;;;;;5091741;28;20505;-59
2022/08/13 04:23:22;;;;;;;2.30;2.07;;;25.00;47.10;;;;;;5092110;28;20441;-61
2022/08/13 04:25:50;;;;;;;1.83;1.73;;;24.90;47.10;;;;;;5091867;28;20494;-61
2022/08/13 04:28:18;;;;;;;2.20;2.10;;;24.90;47.20;;;;;;5091968;28;20449;-61
2022/08/13 04:30:47;;;;;;;2.33;2.23;;;24.90;47.20;;;;;;5091731;28;20434;-61
2022/08/13 04:33:15;;;;;;;2.27;2.17;;;24.90;47.30;;;;;;5091818;28;20442;-62
2022/08/13 04:35:44;;;;;;;2.63;2.43;;;25.00;47.40;;;;;;5073721;28;20460;-61
2022/08/13 04:38:11;;;;;;;2.17;2.07;;;25.00;47.60;;;;;;5071598;28;20443;-59
2022/08/13 04:40:41;;;;;;;1.60;1.60;;;25.00;47.90;;;;;;5071294;28;20483;-61
2022/08/13 04:43:10;;;;;;;2.00;1.90;;;24.90;48.00;;;;;;5071393;28;20875;-61
2022/08/13 04:45:38;;;;;;;4.20;2.50;;;24.90;48.00;;;;;;5072142;28;20486;-59
2022/08/13 04:48:09;;;;;;;2.47;2.37;;;24.90;48.20;;;;;;5071426;28;20531;-60
2022/08/13 04:50:38;;;;;;;1.67;1.67;;;24.90;48.10;;;;;;5072941;28;20443;-63
2022/08/13 04:53:06;;;;;;;1.90;1.83;;;24.90;48.50;;;;;;5093724;28;20541;-63
2022/08/13 04:55:34;;;;;;;3.03;2.43;;;25.00;48.40;;;;;;5092332;28;20549;-64
2022/08/13 04:58:01;;;;;;;3.07;2.40;;;25.20;48.30;;;;;;5092598;28;20945;-64
2022/08/13 05:00:32;;;;;;;1.60;1.60;;;25.20;48.20;;;;;;5092061;28;20528;-62
2022/08/13 05:03:08;;;;;;;1.63;1.63;;;25.30;48.20;;;;;;5091906;28;20477;-63
2022/08/13 05:05:36;;;;;;;2.37;2.17;;;25.30;48.80;;;;;;5091745;28;20501;-63
2022/08/13 05:08:04;;;;;;;2.07;1.97;;;25.40;48.30;;;;;;5089988;28;20450;-64
2022/08/13 05:10:32;;;;;;;3.60;2.37;;;25.40;48.30;;;;;;5091951;28;20529;-63
2022/08/13 05:13:01;;;;;;;4.00;2.00;;;25.50;48.20;;;;;;5092430;28;20450;-63
2022/08/13 05:15:29;;;;;;;1.87;1.77;;;25.60;48.10;;;;;;5091545;28;20838;-58
2022/08/13 05:17:55;;;;;;;1.97;1.87;;;25.70;48.50;;;;;;5091680;28;20445;-61
2022/08/13 05:20:24;;;;;;;2.07;1.97;;;25.70;49.20;;;;;;5091226;28;20484;-59
2022/08/13 05:22:51;;;;;;;2.13;2.07;;;25.70;48.90;;;;;;5092482;28;20448;-59
2022/08/13 05:25:18;;;;;;;1.93;1.87;;;25.80;48.60;;;;;;5076072;28;20474;-61
2022/08/13 05:27:46;;;;;;;1.80;1.77;;;25.80;48.50;;;;;;5075067;28;20478;-60
2022/08/13 05:30:14;;;;;;;1.90;1.80;;;25.90;48.40;;;;;;5074805;28;20486;-59
2022/08/13 05:32:41;;;;;;;1.70;1.60;;;25.90;48.30;;;;;;5076054;28;20542;-58
2022/08/13 05:35:11;;;;;;;1.87;1.70;;;25.90;48.20;;;;;;5094803;28;20553;-62
2022/08/13 05:37:39;;;;;;;3.93;2.70;;;25.90;49.20;;;;;;5095058;28;20457;-63
